Time;durP1;ratioP1;P1;durP2;ratioP2;P2;SDS_P1;SDS_P2;PMS_P1;PMS_P2;Temp;Humidity;BMP_temperature;BMP_pressure;BME280_temperature;BME280_humidity;BME280_pressure;Samples;Min_cycle;Max_cycle;Signal;HPM_P1;HPM_P2
2023/11/12 00:01:52;;;;;;;10.85;5.30;;;3.70;99.90;;;;;;5078550;28;20127;-60
2023/11/12 00:04:19;;;;;;;8.25;5.22;;;3.70;99.90;;;;;;5077761;28;20033;-56
2023/11/12 00:06:45;;;;;;;12.05;5.25;;;3.70;99.90;;;;;;5079929;28;20430;-59
2023/11/12 00:09:11;;;;;;;9.80;5.10;;;3.70;99.90;;;;;;5078784;28;20629;-55
2023/11/12 00:11:38;;;;;;;9.15;5.50;;;3.70;99.90;;;;;;5076362;28;20036;-58
2023/11/12 00:14:04;;;;;;;11.18;5.63;;;3.70;99.90;;;;;;5078173;28;20485;-58
2023/11/12 00:16:29;;;;;;;10.63;5.43;;;3.80;99.90;;;;;;5079277;28;20549;-58
2023/11/12 00:18:56;;;;;;;6.63;5.00;;;3.70;99.90;;;;;;5084049;28;20068;-58
2023/11/12 00:21:23;;;;;;;8.23;5.43;;;3.80;99.90;;;;;;5074926;28;20105;-61
2023/11/12 00:23:49;;;;;;;8.25;5.47;;;3.80;99.90;;;;;;5083068;28;20036;-60
2023/11/12 00:26:15;;;;;;;8.25;4.88;;;3.70;99.90;;;;;;5082955;28;20064;-61
2023/11/12 00:28:41;;;;;;;6.93;4.65;;;3.70;99.90;;;;;;5082510;28;20048;-61
2023/11/12 00:31:07;;;;;;;8.40;4.75;;;3.70;99.90;;;;;;5088448;27;20556;-57
2023/11/12 00:33:32;;;;;;;8.13;4.90;;;3.80;99.90;;;;;;5100864;28;20063;-57
2023/11/12 00:35:58;;;;;;;8.73;4.93;;;3.70;99.90;;;;;;5100831;28;20756;-53
2023/11/12 00:38:24;;;;;;;8.48;4.93;;;3.80;99.90;;;;;;5100774;28;20490;-54
2023/11/12 00:40:50;;;;;;;9.10;5.00;;;3.80;99.90;;;;;;5090575;28;20750;-57
2023/11/12 00:43:16;;;;;;;8.50;5.00;;;3.80;99.90;;;;;;5085774;28;20047;-56
2023/11/12 00:45:42;;;;;;;7.95;5.07;;;3.90;99.90;;;;;;5088948;28;20062;-59
2023/11/12 00:48:08;;;;;;;6.78;5.35;;;3.90;99.90;;;;;;5089104;28;20077;-59
2023/11/12 00:50:34;;;;;;;9.75;6.00;;;3.90;99.90;;;;;;5088964;28;20050;-59
2023/11/12 00:53:00;;;;;;;8.25;5.63;;;4.00;99.90;;;;;;5088547;28;20036;-57
2023/11/12 00:55:26;;;;;;;12.35;6.55;;;4.00;99.90;;;;;;5087748;28;20603;-59
2023/11/12 00:57:52;;;;;;;8.43;5.47;;;4.00;99.90;;;;;;5088217;28;20047;-59
2023/11/12 01:00:18;;;;;;;10.18;6.35;;;4.10;99.90;;;;;;5087174;28;20178;-58
2023/11/12 01:02:43;;;;;;;12.68;6.50;;;4.10;99.90;;;;;;5086976;28;20075;-58
2023/11/12 01:05:09;;;;;;;11.13;6.60;;;4.10;99.90;;;;;;5089186;28;20382;-59
2023/11/12 01:07:38;;;;;;;10.80;6.88;;;4.20;99.90;;;;;;5085797;28;20043;-60
2023/11/12 01:10:04;;;;;;;11.48;6.15;;;4.20;99.90;;;;;;5088396;28;20039;-56
2023/11/12 01:12:30;;;;;;;10.23;6.03;;;4.20;99.90;;;;;;5085147;28;20066;-53
2023/11/12 01:14:55;;;;;;;9.40;6.13;;;4.20;99.90;;;;;;5084254;28;20570;-58
2023/11/12 01:17:21;;;;;;;10.35;6.55;;;4.20;99.90;;;;;;5083553;28;20471;-58
2023/11/12 01:19:47;;;;;;;10.23;6.18;;;4.30;99.90;;;;;;5086232;28;20089;-60
2023/11/12 01:22:12;;;;;;;11.23;6.18;;;4.30;99.90;;;;;;5083249;28;20518;-56
2023/11/12 01:24:38;;;;;;;10.18;6.28;;;4.40;99.90;;;;;;5087848;28;20038;-60
2023/11/12 01:27:04;;;;;;;8.32;5.55;;;4.40;99.90;;;;;;5087517;28;20074;-58
2023/11/12 01:29:30;;;;;;;10.38;6.68;;;4.40;99.90;;;;;;5087451;28;20071;-59
2023/11/12 01:31:55;;;;;;;10.52;4.95;;;4.40;99.90;;;;;;5086379;28;20547;-55
2023/11/12 01:34:22;;;;;;;5.45;4.60;;;4.50;99.90;;;;;;5087854;28;20040;-58
2023/11/12 01:36:48;;;;;;;6.47;4.55;;;4.50;99.90;;;;;;5087664;28;20653;-59
2023/11/12 01:39:14;;;;;;;10.55;6.28;;;4.50;99.90;;;;;;5088428;28;20129;-58
2023/11/12 01:41:39;;;;;;;10.52;6.05;;;4.50;99.90;;;;;;5087695;28;20086;-58
2023/11/12 01:44:05;;;;;;;7.47;5.10;;;4.50;99.90;;;;;;5088073;28;20171;-63
2023/11/12 01:46:32;;;;;;;8.70;5.50;;;4.50;99.90;;;;;;5086594;28;20044;-60
2023/11/12 01:48:59;;;;;;;9.07;4.85;;;4.50;99.90;;;;;;5088272;28;20077;-60
2023/11/12 01:51:27;;;;;;;10.50;5.20;;;4.50;99.90;;;;;;5083944;28;20153;-59
2023/11/12 01:53:53;;;;;;;7.70;5.45;;;4.40;99.90;;;;;;5087541;28;20047;-58
2023/11/12 01:56:20;;;;;;;11.00;6.22;;;4.40;99.90;;;;;;5087039;28;20044;-62
2023/11/12 01:58:46;;;;;;;7.05;5.43;;;4.40;99.90;;;;;;5084685;28;20044;-59
2023/11/12 02:01:12;;;;;;;15.88;7.15;;;4.30;99.90;;;;;;5085729;28;20047;-62
2023/11/12 02:03:41;;;;;;;7.50;5.70;;;4.20;99.90;;;;;;5086786;28;20044;-59
2023/11/12 02:06:06;;;;;;;13.68;5.68;;;4.20;99.90;;;;;;5087144;28;20605;-60
2023/11/12 02:08:35;;;;;;;10.18;5.97;;;4.20;99.90;;;;;;5085872;28;20040;-58
2023/11/12 02:11:07;;;;;;;9.05;6.18;;;4.10;99.90;;;;;;5086299;28;20070;-58
2023/11/12 02:13:39;;;;;;;10.10;5.78;;;4.10;99.90;;;;;;5084638;28;20036;-57
2023/11/12 02:16:05;;;;;;;10.13;5.55;;;4.00;99.90;;;;;;5082210;28;20093;-60
2023/11/12 02:18:30;;;;;;;8.80;5.30;;;3.90;99.90;;;;;;5084827;28;20039;-59
2023/11/12 02:20:56;;;;;;;12.75;5.10;;;3.90;99.90;;;;;;5087959;28;20229;-60
2023/11/12 02:23:22;;;;;;;8.80;5.45;;;3.80;99.90;;;;;;5086181;28;20032;-60
2023/11/12 02:25:47;;;;;;;13.93;5.80;;;3.80;99.90;;;;;;5086939;28;20040;-58
2023/11/12 02:28:18;;;;;;;9.85;5.28;;;3.90;99.90;;;;;;5086046;28;20044;-59
2023/11/12 02:30:45;;;;;;;6.63;5.25;;;3.90;99.90;;;;;;5085923;28;20134;-60
2023/11/12 02:33:11;;;;;;;8.23;4.85;;;3.90;99.90;;;;;;5079399;28;20643;-60
2023/11/12 02:35:42;;;;;;;8.30;4.88;;;4.00;99.90;;;;;;5084895;28;20063;-60
2023/11/12 02:38:10;;;;;;;10.80;5.43;;;3.90;99.90;;;;;;5079913;28;20052;-58
2023/11/12 02:40:37;;;;;;;6.70;4.68;;;3.80;99.90;;;;;;5077939;28;20040;-59
2023/11/12 02:43:03;;;;;;;12.90;5.10;;;3.80;99.90;;;;;;5079974;28;20068;-59
2023/11/12 02:45:29;;;;;;;7.18;4.43;;;3.70;99.90;;;;;;5090920;28;20435;-56
2023/11/12 02:47:55;;;;;;;6.47;4.22;;;3.60;99.90;;;;;;5076191;28;20036;-59
2023/11/12 02:50:31;;;;;;;9.55;5.05;;;3.60;99.90;;;;;;5079634;28;20071;-57
2023/11/12 02:53:00;;;;;;;6.43;4.53;;;3.60;99.90;;;;;;5074610;28;20054;-59
2023/11/12 02:55:27;;;;;;;17.40;5.05;;;3.50;99.90;;;;;;5095809;28;20051;-60
2023/11/12 02:57:52;;;;;;;11.00;5.20;;;3.40;99.90;;;;;;5084290;28;20069;-58
2023/11/12 03:00:18;;;;;;;7.55;5.47;;;3.40;99.90;;;;;;5103561;28;20027;-57
2023/11/12 03:02:47;;;;;;;7.90;5.22;;;3.30;99.90;;;;;;5095191;27;20704;-60
2023/11/12 03:05:14;;;;;;;9.05;5.45;;;3.30;99.90;;;;;;5093775;28;20040;-56
2023/11/12 03:07:41;;;;;;;6.85;4.50;;;3.40;99.90;;;;;;5084197;28;20522;-56
2023/11/12 03:10:08;;;;;;;8.23;4.75;;;3.50;99.90;;;;;;5090352;28;20049;-57
2023/11/12 03:12:38;;;;;;;10.85;4.53;;;3.50;99.90;;;;;;5091030;28;20827;-61
2023/11/12 03:15:07;;;;;;;7.32;4.38;;;3.50;99.90;;;;;;5103531;28;20050;-57
2023/11/12 03:17:34;;;;;;;6.15;4.40;;;3.50;99.90;;;;;;5091912;28;20032;-60
2023/11/12 03:20:04;;;;;;;20.55;4.78;;;3.50;99.90;;;;;;5099145;28;20051;-60
2023/11/12 03:22:33;;;;;;;12.35;4.72;;;3.50;99.90;;;;;;5084705;28;20146;-60
2023/11/12 03:25:00;;;;;;;8.55;4.57;;;3.50;99.90;;;;;;5087400;28;20422;-60
2023/11/12 03:27:26;;;;;;;13.32;5.13;;;3.40;99.90;;;;;;5085215;28;20455;-58
2023/11/12 03:29:52;;;;;;;6.63;4.97;;;3.40;99.90;;;;;;5095604;28;20048;-53
2023/11/12 03:32:21;;;;;;;8.20;5.70;;;3.30;99.90;;;;;;5080703;28;20043;-60
2023/11/12 03:34:48;;;;;;;14.63;6.45;;;3.30;99.90;;;;;;5086861;28;20460;-58
2023/11/12 03:37:14;;;;;;;9.52;5.10;;;3.20;99.90;;;;;;5083689;28;20040;-60
2023/11/12 03:39:39;;;;;;;9.13;5.28;;;3.20;99.90;;;;;;5093317;28;20825;-60
2023/11/12 03:42:05;;;;;;;13.90;4.55;;;3.20;99.90;;;;;;5084960;28;20113;-61
2023/11/12 03:44:31;;;;;;;10.35;4.00;;;3.20;99.90;;;;;;5086351;28;20449;-58
2023/11/12 03:46:56;;;;;;;7.70;4.65;;;3.20;99.90;;;;;;5090533;28;20044;-59
2023/11/12 03:49:22;;;;;;;7.70;4.57;;;3.20;99.90;;;;;;5086370;28;20495;-60
2023/11/12 03:51:48;;;;;;;7.00;4.32;;;3.30;99.90;;;;;;5089879;28;20059;-60
2023/11/12 03:54:14;;;;;;;8.40;4.72;;;3.40;99.90;;;;;;5087520;28;20063;-60
2023/11/12 03:56:40;;;;;;;9.15;4.45;;;3.40;99.90;;;;;;5077335;28;20043;-61
2023/11/12 03:59:05;;;;;;;8.05;4.45;;;3.50;99.90;;;;;;5081504;28;20051;-60
2023/11/12 04:01:31;;;;;;;6.20;3.75;;;3.50;99.90;;;;;;5073743;28;20495;-60
2023/11/12 04:03:56;;;;;;;5.90;4.07;;;3.50;99.90;;;;;;5085535;28;20051;-60
2023/11/12 04:06:22;;;;;;;10.00;4.90;;;3.60;99.90;;;;;;5079176;28;20071;-61
2023/11/12 04:08:48;;;;;;;7.85;3.63;;;3.60;99.90;;;;;;5072587;28;20051;-62
2023/11/12 04:11:13;;;;;;;8.10;3.10;;;3.60;99.90;;;;;;5079963;28;20040;-59
2023/11/12 04:13:39;;;;;;;7.50;4.25;;;3.70;99.90;;;;;;5078897;28;20487;-60
2023/11/12 04:16:05;;;;;;;6.47;3.75;;;3.70;99.90;;;;;;5077347;28;20059;-61
2023/11/12 04:18:34;;;;;;;7.97;4.47;;;3.70;99.90;;;;;;5085300;28;20516;-59
2023/11/12 04:21:02;;;;;;;6.68;4.00;;;3.70;99.90;;;;;;5078129;28;20043;-60
2023/11/12 04:23:27;;;;;;;7.22;4.30;;;3.70;99.90;;;;;;5081333;28;20558;-60
2023/11/12 04:25:53;;;;;;;11.27;4.60;;;3.70;99.90;;;;;;5082195;28;20040;-59
2023/11/12 04:28:25;;;;;;;8.10;3.58;;;3.60;99.90;;;;;;5087516;28;20063;-59
2023/11/12 04:30:51;;;;;;;5.78;3.65;;;3.60;99.90;;;;;;5085576;28;20863;-56
2023/11/12 04:33:18;;;;;;;9.85;3.60;;;3.70;99.90;;;;;;5080807;28;20059;-61
2023/11/12 04:35:43;;;;;;;10.57;3.78;;;3.70;99.90;;;;;;5087862;28;20036;-60
2023/11/12 04:38:09;;;;;;;5.03;3.65;;;3.70;99.90;;;;;;5082333;28;20028;-60
2023/11/12 04:40:35;;;;;;;11.63;4.10;;;3.70;99.90;;;;;;5088567;28;20040;-60
2023/11/12 04:43:01;;;;;;;5.10;3.38;;;3.70;99.90;;;;;;5087329;28;20048;-60
2023/11/12 04:45:27;;;;;;;9.18;3.97;;;3.70;99.90;;;;;;5080753;28;20093;-60
2023/11/12 04:47:53;;;;;;;4.97;3.53;;;3.80;99.90;;;;;;5092424;28;20132;-60
2023/11/12 04:50:18;;;;;;;9.05;3.20;;;3.80;99.90;;;;;;5083727;28;20294;-60
2023/11/12 04:52:44;;;;;;;4.75;3.08;;;3.80;99.90;;;;;;5081831;28;20048;-61
2023/11/12 04:55:10;;;;;;;11.80;3.15;;;3.90;99.90;;;;;;5084946;28;20047;-59
2023/11/12 04:57:35;;;;;;;5.18;3.10;;;3.90;99.90;;;;;;5087294;28;20051;-59
2023/11/12 05:00:01;;;;;;;11.27;3.25;;;3.90;99.90;;;;;;5087920;28;20071;-59
2023/11/12 05:02:27;;;;;;;3.78;2.70;;;3.90;99.90;;;;;;5086071;28;20048;-57
2023/11/12 05:04:52;;;;;;;10.02;3.03;;;3.90;99.90;;;;;;5091752;28;20642;-59
2023/11/12 05:07:18;;;;;;;3.80;2.90;;;3.90;99.90;;;;;;5087832;28;20114;-59
2023/11/12 05:09:43;;;;;;;4.45;2.70;;;4.00;99.90;;;;;;5082824;28;20056;-59
2023/11/12 05:12:09;;;;;;;7.13;3.17;;;4.00;99.90;;;;;;5086575;28;20070;-59
2023/11/12 05:14:35;;;;;;;13.32;3.28;;;4.00;99.90;;;;;;5089406;28;20665;-59
2023/11/12 05:17:01;;;;;;;7.53;3.58;;;3.90;99.90;;;;;;5090951;28;20509;-56
2023/11/12 05:19:26;;;;;;;4.70;2.92;;;4.00;99.90;;;;;;5088971;28;20092;-59
2023/11/12 05:21:52;;;;;;;4.78;3.17;;;4.00;99.90;;;;;;5086280;28;20024;-58
2023/11/12 05:24:17;;;;;;;9.13;3.17;;;4.00;99.90;;;;;;5086523;28;20089;-58
2023/11/12 05:26:44;;;;;;;4.75;2.92;;;4.00;99.90;;;;;;5086944;28;20071;-53
2023/11/12 05:29:09;;;;;;;6.35;3.20;;;4.00;99.90;;;;;;5092768;28;20036;-58
2023/11/12 05:31:35;;;;;;;4.10;2.65;;;4.00;99.90;;;;;;5089620;28;20044;-56
2023/11/12 05:34:01;;;;;;;8.25;3.70;;;4.00;99.90;;;;;;5083214;28;20038;-58
2023/11/12 05:36:27;;;;;;;12.73;3.10;;;4.10;99.90;;;;;;5082259;28;20040;-57
2023/11/12 05:38:53;;;;;;;8.50;3.28;;;4.10;99.90;;;;;;5090511;28;20040;-56
2023/11/12 05:41:19;;;;;;;4.40;2.97;;;4.10;99.90;;;;;;5086664;28;20048;-58
2023/11/12 05:43:46;;;;;;;10.20;2.97;;;4.10;99.90;;;;;;5087130;28;20043;-59
2023/11/12 05:46:12;;;;;;;7.40;3.83;;;4.10;99.90;;;;;;5087397;28;20454;-54
2023/11/12 05:48:37;;;;;;;7.95;3.05;;;4.10;99.90;;;;;;5086866;28;20076;-55
2023/11/12 05:51:03;;;;;;;7.65;4.05;;;4.10;99.90;;;;;;5090894;28;20067;-56
2023/11/12 05:53:29;;;;;;;7.07;3.05;;;4.10;99.90;;;;;;5092398;28;20063;-59
2023/11/12 05:55:54;;;;;;;7.93;4.03;;;4.20;99.90;;;;;;5081429;28;20066;-57
2023/11/12 05:58:21;;;;;;;10.05;3.17;;;4.20;99.90;;;;;;5083586;28;20039;-60
2023/11/12 06:00:47;;;;;;;10.35;2.92;;;4.10;99.90;;;;;;5084146;28;20044;-59
2023/11/12 06:03:12;;;;;;;6.60;2.88;;;4.10;99.90;;;;;;5080472;28;20206;-58
2023/11/12 06:05:39;;;;;;;7.53;3.50;;;4.10;99.90;;;;;;5079983;28;20498;-57
2023/11/12 06:08:05;;;;;;;4.57;3.05;;;4.10;99.90;;;;;;5089529;28;20808;-58
2023/11/12 06:10:31;;;;;;;6.97;3.85;;;4.20;99.90;;;;;;5083817;28;20037;-60
2023/11/12 06:12:57;;;;;;;10.35;3.90;;;4.20;99.90;;;;;;5081228;28;20484;-58
2023/11/12 06:15:27;;;;;;;6.18;3.67;;;4.20;99.90;;;;;;5080721;28;20492;-57
2023/11/12 06:17:53;;;;;;;8.38;4.03;;;4.10;99.90;;;;;;5081582;28;20119;-59
2023/11/12 06:20:19;;;;;;;16.40;4.47;;;4.10;99.90;;;;;;5080269;28;20068;-58
2023/11/12 06:22:44;;;;;;;10.20;4.47;;;4.10;99.90;;;;;;5086046;28;20067;-60
2023/11/12 06:25:11;;;;;;;9.68;4.47;;;4.20;99.90;;;;;;5076512;28;21149;-59
2023/11/12 06:27:38;;;;;;;5.65;3.60;;;4.10;99.90;;;;;;5082359;28;20084;-59
2023/11/12 06:30:04;;;;;;;5.28;3.53;;;4.20;99.90;;;;;;5081989;28;20460;-59
2023/11/12 06:32:30;;;;;;;7.13;4.18;;;4.20;99.90;;;;;;5082259;28;20500;-58
2023/11/12 06:34:56;;;;;;;5.68;3.85;;;4.10;99.90;;;;;;5081935;28;20087;-58
2023/11/12 06:37:21;;;;;;;7.38;4.35;;;4.20;99.90;;;;;;5082423;28;20609;-60
2023/11/12 06:39:47;;;;;;;7.07;3.97;;;4.10;99.90;;;;;;5084043;28;20415;-60
2023/11/12 06:42:12;;;;;;;9.55;3.75;;;4.20;99.90;;;;;;5079736;28;20075;-59
2023/11/12 06:44:38;;;;;;;8.75;4.20;;;4.20;99.90;;;;;;5085093;28;20051;-57
2023/11/12 06:47:04;;;;;;;6.32;3.63;;;4.20;99.90;;;;;;5085865;28;20047;-59
2023/11/12 06:49:31;;;;;;;8.52;4.00;;;4.20;99.90;;;;;;5083995;28;20047;-58
2023/11/12 06:51:58;;;;;;;6.18;3.88;;;4.20;99.90;;;;;;5087494;28;20051;-57
2023/11/12 06:54:24;;;;;;;8.25;3.45;;;4.20;99.90;;;;;;5083818;28;20048;-59
2023/11/12 06:56:50;;;;;;;5.53;3.75;;;4.20;99.90;;;;;;5075532;28;20036;-58
2023/11/12 06:59:16;;;;;;;6.60;3.83;;;4.30;99.90;;;;;;5083030;28;20097;-59
2023/11/12 07:01:42;;;;;;;13.35;4.07;;;4.30;99.90;;;;;;5083352;28;20047;-53
2023/11/12 07:04:10;;;;;;;8.80;4.25;;;4.30;99.90;;;;;;5086740;28;20469;-58
2023/11/12 07:06:35;;;;;;;6.35;3.95;;;4.30;99.90;;;;;;5082435;28;20044;-59
2023/11/12 07:09:01;;;;;;;5.10;3.90;;;4.30;99.90;;;;;;5083492;28;20109;-56
2023/11/12 07:11:27;;;;;;;7.25;3.95;;;4.30;99.90;;;;;;5082296;28;20192;-56
2023/11/12 07:13:52;;;;;;;7.80;4.70;;;4.30;99.90;;;;;;5083825;28;20036;-55
2023/11/12 07:16:18;;;;;;;9.88;4.82;;;4.30;99.90;;;;;;5082330;28;20038;-57
2023/11/12 07:18:44;;;;;;;8.98;5.05;;;4.30;99.90;;;;;;5088202;28;20040;-58
2023/11/12 07:21:10;;;;;;;7.90;5.10;;;4.30;99.90;;;;;;5083640;28;20526;-59
2023/11/12 07:23:39;;;;;;;9.25;4.38;;;4.30;99.90;;;;;;5084745;28;20158;-58
2023/11/12 07:26:05;;;;;;;13.32;3.90;;;4.30;99.90;;;;;;5078501;28;20431;-58
2023/11/12 07:28:31;;;;;;;5.72;4.45;;;4.40;99.90;;;;;;5084679;28;20059;-61
2023/11/12 07:30:57;;;;;;;8.52;4.53;;;4.40;99.90;;;;;;5085627;28;20044;-60
2023/11/12 07:33:22;;;;;;;9.48;3.55;;;4.40;99.90;;;;;;5085150;28;20550;-60
2023/11/12 07:35:49;;;;;;;8.45;3.38;;;4.40;99.90;;;;;;5086138;28;20039;-57
2023/11/12 07:38:15;;;;;;;6.82;3.85;;;4.40;99.90;;;;;;5080042;28;20067;-60
2023/11/12 07:40:41;;;;;;;6.97;3.55;;;4.50;99.90;;;;;;5083769;28;20040;-61
2023/11/12 07:43:07;;;;;;;5.40;3.53;;;4.50;99.90;;;;;;5081822;28;20055;-60
2023/11/12 07:45:33;;;;;;;7.82;3.55;;;4.60;99.90;;;;;;5083928;28;20043;-61
2023/11/12 07:47:59;;;;;;;5.78;3.35;;;4.70;99.90;;;;;;5078638;28;20032;-60
2023/11/12 07:50:25;;;;;;;5.57;3.50;;;4.70;99.90;;;;;;5076826;28;20036;-65
2023/11/12 07:52:50;;;;;;;8.35;3.83;;;4.80;99.90;;;;;;5083262;28;20039;-60
2023/11/12 07:55:16;;;;;;;10.13;4.35;;;4.90;99.90;;;;;;5086088;28;20119;-61
2023/11/12 07:57:42;;;;;;;5.57;3.40;;;4.90;99.90;;;;;;5088502;28;20396;-61
2023/11/12 08:00:12;;;;;;;6.68;3.47;;;5.00;99.90;;;;;;5089597;28;20052;-61
2023/11/12 08:02:39;;;;;;;13.27;3.20;;;5.00;99.90;;;;;;5084809;28;20075;-63
2023/11/12 08:05:07;;;;;;;6.18;3.25;;;5.00;99.90;;;;;;5087452;28;20105;-61
2023/11/12 08:07:33;;;;;;;4.88;3.00;;;4.90;99.90;;;;;;5085546;28;20063;-61
2023/11/12 08:09:59;;;;;;;4.72;2.63;;;4.90;99.90;;;;;;5089123;28;20483;-59
2023/11/12 08:12:25;;;;;;;5.68;2.83;;;4.90;99.90;;;;;;5085333;28;20037;-61
2023/11/12 08:14:50;;;;;;;5.07;2.35;;;5.00;99.90;;;;;;5087042;28;20039;-60
2023/11/12 08:17:17;;;;;;;5.85;2.65;;;5.00;99.90;;;;;;5092095;28;20040;-61
2023/11/12 08:19:42;;;;;;;3.83;2.35;;;5.00;99.90;;;;;;5091323;28;20032;-54
2023/11/12 08:22:08;;;;;;;4.78;2.70;;;5.00;99.90;;;;;;5083091;28;20468;-58
2023/11/12 08:24:34;;;;;;;7.40;2.35;;;5.00;99.90;;;;;;5087883;28;20032;-57
2023/11/12 08:27:02;;;;;;;6.55;3.00;;;5.10;99.90;;;;;;5088436;28;20079;-59
2023/11/12 08:29:28;;;;;;;4.72;3.10;;;5.20;99.90;;;;;;5087885;28;20044;-58
2023/11/12 08:31:54;;;;;;;5.18;2.80;;;5.10;99.90;;;;;;5088742;28;20040;-57
2023/11/12 08:34:21;;;;;;;5.40;2.95;;;5.20;99.90;;;;;;5090963;28;20040;-61
2023/11/12 08:36:48;;;;;;;4.45;2.80;;;5.20;99.90;;;;;;5089060;28;20134;-61
2023/11/12 08:39:14;;;;;;;8.88;3.15;;;5.20;99.90;;;;;;5085617;28;20075;-61
2023/11/12 08:41:43;;;;;;;4.70;2.83;;;5.20;99.90;;;;;;5088088;28;20056;-61
2023/11/12 08:44:09;;;;;;;4.47;2.97;;;5.30;99.90;;;;;;5086477;28;20048;-62
2023/11/12 08:46:35;;;;;;;4.50;2.88;;;5.30;99.90;;;;;;5086082;28;20048;-61
2023/11/12 08:49:02;;;;;;;6.03;3.10;;;5.40;99.90;;;;;;5084736;28;20400;-61
2023/11/12 08:51:27;;;;;;;5.35;2.72;;;5.40;99.90;;;;;;5089820;28;20032;-61
2023/11/12 08:53:54;;;;;;;5.25;2.60;;;5.40;99.90;;;;;;5088283;28;20043;-59
2023/11/12 08:56:20;;;;;;;5.25;2.95;;;5.50;99.90;;;;;;5085133;28;20058;-60
2023/11/12 08:58:46;;;;;;;4.57;2.60;;;5.50;99.90;;;;;;5084800;28;20487;-62
2023/11/12 09:01:12;;;;;;;;;;;5.50;99.90;;;;;;5087107;28;20043;-60
2023/11/12 09:03:38;;;;;;;3.58;2.20;;;5.50;99.90;;;;;;5081186;28;19994;-61
2023/11/12 09:06:05;;;;;;;4.50;2.53;;;5.60;99.90;;;;;;5088787;28;20457;-61
2023/11/12 09:08:30;;;;;;;3.97;2.22;;;5.70;99.90;;;;;;5081340;28;20040;-61
2023/11/12 09:10:56;;;;;;;4.55;2.63;;;5.70;99.90;;;;;;5086314;28;20097;-61
2023/11/12 09:13:22;;;;;;;6.10;2.20;;;5.80;99.90;;;;;;5086144;28;20036;-61
2023/11/12 09:15:47;;;;;;;4.38;2.10;;;5.80;99.90;;;;;;5089503;28;20040;-61
2023/11/12 09:18:13;;;;;;;3.38;2.00;;;5.80;99.90;;;;;;5085487;28;20102;-61
2023/11/12 09:20:39;;;;;;;3.55;2.50;;;5.80;99.90;;;;;;5083197;28;20040;-61
2023/11/12 09:23:05;;;;;;;3.55;2.08;;;5.80;99.90;;;;;;5083038;28;20085;-61
2023/11/12 09:25:31;;;;;;;2.38;1.70;;;5.80;99.90;;;;;;5087094;28;20045;-62
2023/11/12 09:27:57;;;;;;;5.05;2.60;;;5.80;99.90;;;;;;5085656;28;20723;-62
2023/11/12 09:30:23;;;;;;;5.88;2.28;;;5.80;99.90;;;;;;5084388;28;20051;-58
2023/11/12 09:32:49;;;;;;;4.18;1.92;;;5.80;99.90;;;;;;5084278;28;20623;-57
2023/11/12 09:35:15;;;;;;;2.95;1.90;;;5.90;99.90;;;;;;5082493;28;20048;-63
2023/11/12 09:37:41;;;;;;;4.50;1.95;;;5.90;99.90;;;;;;5085548;28;20040;-62
2023/11/12 09:40:08;;;;;;;3.58;2.08;;;5.80;99.90;;;;;;5087776;28;20105;-62
2023/11/12 09:42:38;;;;;;;5.45;1.92;;;5.90;99.90;;;;;;5082205;28;20070;-61
2023/11/12 09:45:05;;;;;;;5.63;2.10;;;5.90;99.90;;;;;;5086899;28;20137;-62
2023/11/12 09:47:34;;;;;;;4.38;2.45;;;5.90;99.90;;;;;;5086391;28;20115;-59
2023/11/12 09:50:02;;;;;;;4.85;2.00;;;6.00;99.90;;;;;;5086954;28;20391;-61
2023/11/12 09:52:29;;;;;;;4.65;2.03;;;6.00;99.90;;;;;;5080510;28;20044;-60
2023/11/12 09:54:56;;;;;;;4.07;1.83;;;6.10;99.90;;;;;;5082898;28;20038;-60
2023/11/12 09:57:22;;;;;;;5.55;2.05;;;6.20;99.90;;;;;;5082937;28;20682;-57
2023/11/12 09:59:48;;;;;;;4.65;1.73;;;6.20;99.90;;;;;;5078270;28;20037;-61
2023/11/12 10:02:14;;;;;;;6.18;2.15;;;6.20;99.90;;;;;;5078654;28;20526;-60
2023/11/12 10:04:43;;;;;;;3.90;2.28;;;6.20;99.90;;;;;;5085683;28;20364;-61
2023/11/12 10:07:11;;;;;;;6.00;1.92;;;6.30;99.90;;;;;;5086327;28;20118;-60
2023/11/12 10:09:37;;;;;;;7.40;2.30;;;6.30;99.90;;;;;;5085024;28;20055;-61
2023/11/12 10:12:06;;;;;;;2.63;1.73;;;6.40;99.90;;;;;;5084470;28;20039;-61
2023/11/12 10:14:32;;;;;;;3.80;1.85;;;6.30;99.90;;;;;;5085353;28;20503;-59
2023/11/12 10:17:10;;;;;;;5.72;2.30;;;6.40;99.90;;;;;;5084475;28;20119;-61
2023/11/12 10:19:37;;;;;;;3.88;2.00;;;6.50;99.90;;;;;;5079724;28;20064;-61
2023/11/12 10:22:06;;;;;;;5.72;1.70;;;6.50;99.90;;;;;;5086530;28;20047;-61
2023/11/12 10:24:42;;;;;;;2.72;1.67;;;6.50;99.90;;;;;;5083815;28;20041;-60
2023/11/12 10:27:11;;;;;;;5.00;1.80;;;6.60;99.90;;;;;;5079284;28;20802;-58
2023/11/12 10:29:37;;;;;;;4.53;1.73;;;6.60;99.90;;;;;;5081147;28;20081;-61
2023/11/12 10:32:05;;;;;;;2.58;1.30;;;6.70;99.90;;;;;;5085423;28;20048;-61
2023/11/12 10:34:31;;;;;;;1.95;1.08;;;6.70;99.90;;;;;;5082158;28;20535;-63
2023/11/12 10:37:08;;;;;;;3.17;1.15;;;6.80;99.90;;;;;;5086430;28;20118;-61
2023/11/12 10:39:35;;;;;;;4.18;1.35;;;6.80;99.90;;;;;;5086359;28;20058;-61
2023/11/12 10:42:00;;;;;;;2.33;1.10;;;6.90;99.90;;;;;;5086328;28;20800;-61
2023/11/12 10:44:26;;;;;;;5.32;1.75;;;7.00;99.90;;;;;;5085703;28;20035;-60
2023/11/12 10:46:53;;;;;;;2.38;1.30;;;7.00;99.90;;;;;;5086177;28;20454;-60
2023/11/12 10:49:20;;;;;;;8.05;1.70;;;7.10;99.90;;;;;;5084051;28;20682;-56
2023/11/12 10:51:47;;;;;;;2.35;1.23;;;7.10;99.90;;;;;;5080713;28;20494;-58
2023/11/12 10:54:14;;;;;;;4.22;1.30;;;7.20;99.90;;;;;;5075094;28;20040;-62
2023/11/12 10:56:39;;;;;;;4.10;1.33;;;7.30;99.90;;;;;;5080366;28;20048;-58
2023/11/12 10:59:06;;;;;;;;;;;7.30;99.90;;;;;;5086507;28;20047;-55
2023/11/12 11:01:33;;;;;;;4.45;0.95;;;7.40;99.90;;;;;;5078451;28;19927;-60
2023/11/12 11:03:59;;;;;;;2.05;1.00;;;7.30;99.90;;;;;;5075379;28;20047;-64
2023/11/12 11:06:26;;;;;;;2.35;1.20;;;7.40;99.90;;;;;;5086372;28;20040;-64
2023/11/12 11:08:53;;;;;;;2.45;1.02;;;7.70;99.90;;;;;;5081200;28;20039;-65
2023/11/12 11:11:21;;;;;;;3.75;1.05;;;7.90;99.90;;;;;;5085394;28;20621;-62
2023/11/12 11:13:48;;;;;;;1.60;0.60;;;8.20;99.90;;;;;;5085064;28;20059;-61
2023/11/12 11:16:49;;;;;;;0.95;0.73;;;8.30;99.90;;;;;;5081034;28;20037;-61
2023/11/12 11:19:15;;;;;;;1.50;1.20;;;8.50;99.90;;;;;;5082225;28;20039;-61
2023/11/12 11:21:41;;;;;;;;;;;8.40;99.90;;;;;;5085937;28;20037;-58
2023/11/12 11:24:08;;;;;;;1.48;0.70;;;8.20;99.90;;;;;;5085423;28;19920;-63
2023/11/12 11:26:41;;;;;;;1.23;0.60;;;8.00;99.90;;;;;;5077538;28;20044;-57
2023/11/12 11:29:10;;;;;;;2.72;0.98;;;8.00;99.90;;;;;;5086953;28;20048;-60
2023/11/12 11:31:37;;;;;;;1.90;1.00;;;7.90;99.90;;;;;;5076773;28;20036;-61
2023/11/12 11:34:04;;;;;;;0.90;0.77;;;7.80;99.90;;;;;;5082931;28;20043;-54
2023/11/12 11:36:31;;;;;;;2.88;0.95;;;7.70;99.90;;;;;;5082358;28;20123;-62
2023/11/12 11:39:07;;;;;;;3.60;1.13;;;7.70;99.90;;;;;;5085848;28;20441;-61
2023/11/12 11:41:56;;;;;;;;;;;7.60;99.90;;;;;;5082569;28;20051;-59
2023/11/12 11:44:40;;;;;;;5.32;0.95;;;7.40;99.90;;;;;;5078782;28;19916;-57
2023/11/12 11:47:15;;;;;;;5.25;1.00;;;7.30;99.90;;;;;;5079343;28;20043;-60
2023/11/12 11:50:10;;;;;;;1.73;0.88;;;7.20;99.90;;;;;;5080467;28;20116;-58
2023/11/12 11:52:41;;;;;;;2.45;1.00;;;7.10;99.90;;;;;;5096924;28;20041;-59
2023/11/12 11:55:20;;;;;;;3.13;0.77;;;7.00;99.90;;;;;;5078334;28;20167;-59
2023/11/12 11:57:50;;;;;;;3.60;1.00;;;6.90;99.90;;;;;;5081593;28;20051;-60
2023/11/12 12:00:17;;;;;;;1.23;0.70;;;6.90;99.90;;;;;;5078461;28;20044;-55
2023/11/12 12:02:44;;;;;;;2.25;1.02;;;7.00;99.90;;;;;;5074810;28;20117;-60
2023/11/12 12:05:10;;;;;;;5.13;1.45;;;7.00;99.90;;;;;;5080304;28;20702;-60
2023/11/12 12:07:44;;;;;;;2.38;1.40;;;7.00;99.90;;;;;;5083511;28;20044;-58
2023/11/12 12:10:25;;;;;;;1.73;1.00;;;7.10;99.90;;;;;;5085882;28;20040;-60
2023/11/12 12:12:51;;;;;;;3.97;1.60;;;7.10;99.90;;;;;;5087769;28;20406;-59
2023/11/12 12:15:17;;;;;;;2.20;1.02;;;7.20;99.90;;;;;;5076578;28;20052;-59
2023/11/12 12:17:43;;;;;;;5.90;1.20;;;7.10;99.90;;;;;;5082144;28;20058;-61
2023/11/12 12:20:09;;;;;;;3.65;1.20;;;7.00;99.90;;;;;;5087139;28;20043;-55
2023/11/12 12:22:35;;;;;;;;;;;6.90;99.90;;;;;;5085752;28;20036;-57
2023/11/12 12:25:00;;;;;;;3.95;1.52;;;6.80;99.90;;;;;;5081732;28;19920;-59
2023/11/12 12:27:26;;;;;;;3.63;1.05;;;6.80;99.90;;;;;;5084165;28;20051;-61
2023/11/12 12:29:53;;;;;;;3.28;1.40;;;6.80;99.90;;;;;;5088071;28;20055;-58
2023/11/12 12:32:19;;;;;;;3.15;1.52;;;6.80;99.90;;;;;;5080883;28;20040;-60
2023/11/12 12:34:56;;;;;;;2.40;1.33;;;6.80;99.90;;;;;;5087876;28;20542;-60
2023/11/12 12:37:27;;;;;;;2.35;1.30;;;6.80;99.90;;;;;;5083482;28;20040;-56
2023/11/12 12:40:06;;;;;;;6.15;1.98;;;6.70;99.90;;;;;;5095338;28;21599;-60
2023/11/12 12:42:34;;;;;;;2.22;1.27;;;6.70;99.90;;;;;;5089223;28;20056;-60
2023/11/12 12:45:00;;;;;;;2.15;1.40;;;6.60;99.90;;;;;;5080128;28;20126;-61
2023/11/12 12:47:36;;;;;;;2.65;1.25;;;6.70;99.90;;;;;;5088904;28;20197;-60
2023/11/12 12:50:16;;;;;;;1.33;1.10;;;6.70;99.90;;;;;;5086431;28;20355;-62
2023/11/12 12:52:51;;;;;;;3.60;1.73;;;6.80;99.90;;;;;;5095044;28;20044;-62
2023/11/12 12:55:18;;;;;;;2.78;1.10;;;6.80;99.90;;;;;;5105375;28;20046;-60